No.21 Houeimaru — JG5024 — position and weather

sailwx.info

Track history (hours):
 
Tides and Currents Weather Stations Pressure Air Temp Water Temp Dewpoint Dewpoint Depression Visibility Wind Speed Wind Dir Waves Ship Positions

No.21 Houeimaru

Last reported at 2017-Oct-18 17:46 UTC. Time now 2017-Oct-18 20:17 UTC.
Position N 35°29' E 139°42'.

Length 50 m.

Type: Tanker. MMSI: 431009275.

Date/timePositionNaut miles runAvg speedWind from/ knotsBaromVisibWave heightAir tempDewpointWater temp
2017-Oct-18 17:46N 35°29' E 139°42'0 0.0
2017-Oct-18 14:52N 35°29' E 139°42'0 0.0
2017-Oct-18 12:13N 35°29' E 139°42'0 0.0
2017-Oct-18 11:52N 35°29' E 139°42'0 0.0
2017-Oct-18 11:04N 35°29' E 139°42'0 0.0
2017-Oct-18 10:31N 35°29' E 139°42'0 0.0
2017-Oct-18 06:58N 35°29' E 139°42'4 1.0
2017-Oct-18 02:45N 35°29' E 139°46'2 9.7
2017-Oct-18 02:31N 35°27' E 139°45'5 8.4
2017-Oct-18 01:55N 35°24' E 139°40'2 3.1
2017-Oct-18 01:21N 35°24' E 139°38'0 0.0
2017-Oct-17 23:54N 35°24' E 139°38'0 0.0
2017-Oct-17 23:09N 35°24' E 139°38'0 2.4
2017-Oct-17 23:00N 35°24' E 139°39'5 1.0
2017-Oct-17 17:58N 35°29' E 139°41'0 0.0
2017-Oct-17 07:01N 35°29' E 139°42'011.7
2017-Oct-17 07:00N 35°29' E 139°42'3 0.5
2017-Oct-17 00:59N 35°27' E 139°45'5 8.5
2017-Oct-17 00:21N 35°24' E 139°40'1 1.7
2017-Oct-16 23:45N 35°25' E 139°39'0 0.0
2017-Oct-16 22:39N 35°25' E 139°39'0 0.0
2017-Oct-16 22:27N 35°25' E 139°39'2 3.6
2017-Oct-16 21:46N 35°25' E 139°42'4 2.4
2017-Oct-16 20:07N 35°29' E 139°42'0 0.0
2017-Oct-16 19:34N 35°29' E 139°42'0 0.0
2017-Oct-16 18:19N 35°29' E 139°42'0 0.0
2017-Oct-16 10:55N 35°29' E 139°42'0 0.0
2017-Oct-16 08:13N 35°29' E 139°42'0 0.0
2017-Oct-16 07:16N 35°29' E 139°42'0 0.0
2017-Oct-16 05:25N 35°29' E 139°42'0 0.0
2017-Oct-16 04:55N 35°29' E 139°42'4 1.4
2017-Oct-16 01:59N 35°29' E 139°47'6 9.0
2017-Oct-16 01:21N 35°25' E 139°42'2 4.8
2017-Oct-16 00:51N 35°25' E 139°39'0 0.0
2017-Oct-15 23:24N 35°25' E 139°39'0 0.5
2017-Oct-15 23:00N 35°24' E 139°39'2 3.8
2017-Oct-15 22:29N 35°24' E 139°42'5 1.2
2017-Oct-15 18:42N 35°29' E 139°42'0 0.0
2017-Oct-15 13:06N 35°29' E 139°42'0 0.0
2017-Oct-15 13:00N 35°29' E 139°42'0 0.0
2017-Oct-15 12:03N 35°29' E 139°42'0 0.0
2017-Oct-15 06:00N 35°29' E 139°42'0 0.0
2017-Oct-15 03:12N 35°29' E 139°42'0 0.0
2017-Oct-15 02:51N 35°29' E 139°42'0 0.0
2017-Oct-15 02:27N 35°29' E 139°42'0 0.0
2017-Oct-15 01:57N 35°29' E 139°42'0 0.0
2017-Oct-14 21:57N 35°29' E 139°42'0 0.0
2017-Oct-14 21:21N 35°29' E 139°42'1 0.1
2017-Oct-14 09:20N 35°29' E 139°43'3 0.4
2017-Oct-14 02:03N 35°28' E 139°46'1 9.7
2017-Oct-14 01:55N 35°27' E 139°45'4 9.0
2017-Oct-14 01:28N 35°24' E 139°42'2 0.9
2017-Oct-13 23:22N 35°24' E 139°40'1 0.8
2017-Oct-13 22:37N 35°24' E 139°40'1 5.5
2017-Oct-13 22:26N 35°23' E 139°41'4 9.1
2017-Oct-13 22:00N 35°27' E 139°43'2 2.4
2017-Oct-13 21:04N 35°29' E 139°42'0 0.0
2017-Oct-13 15:49N 35°29' E 139°42'0 0.0
2017-Oct-13 15:16N 35°29' E 139°42'0 0.0
2017-Oct-13 12:34N 35°29' E 139°42'0 0.0
2017-Oct-13 12:10N 35°29' E 139°42'0 0.0
2017-Oct-13 11:55N 35°29' E 139°42'0 0.0
2017-Oct-13 11:25N 35°29' E 139°42'0 0.0
2017-Oct-13 09:25N 35°29' E 139°42'0 0.0
2017-Oct-13 08:37N 35°29' E 139°42'0 0.0
2017-Oct-13 08:19N 35°29' E 139°42'0 0.0
2017-Oct-13 07:58N 35°29' E 139°42'0 0.0
2017-Oct-13 07:16N 35°29' E 139°42'0 0.0
2017-Oct-13 06:55N 35°29' E 139°42'0 0.0
2017-Oct-13 05:49N 35°29' E 139°42'4 0.5
2017-Oct-12 21:43N 35°30' E 139°46'4 1.9
2017-Oct-12 19:47N 35°29' E 139°42'0 0.0
2017-Oct-12 19:29N 35°29' E 139°42'0 0.0
2017-Oct-12 15:59N 35°29' E 139°42'0 0.0
2017-Oct-12 14:02N 35°29' E 139°42'0 0.0
2017-Oct-12 13:53N 35°29' E 139°42'0 0.0
2017-Oct-12 12:59N 35°29' E 139°42'0 0.0
2017-Oct-12 09:20N 35°29' E 139°42'0 0.0
2017-Oct-12 07:14N 35°29' E 139°42'0 0.0
2017-Oct-12 06:47N 35°29' E 139°42'0 0.0
2017-Oct-12 06:29N 35°29' E 139°42'0 0.0
2017-Oct-12 05:59N 35°29' E 139°42'0 0.0
2017-Oct-12 03:14N 35°29' E 139°42'5 7.8
2017-Oct-12 02:32N 35°29' E 139°48'0 2.1
2017-Oct-12 02:25N 35°29' E 139°48'5 0.1
2017-Oct-10 07:25N 35°27' E 139°43'2 1.0
2017-Oct-10 05:00N 35°29' E 139°40'0 0.2
2017-Oct-10 03:54N 35°29' E 139°40'3 5.7
2017-Oct-10 03:20N 35°26' E 139°43'2 6.0
2017-Oct-10 02:58N 35°24' E 139°42'2 1.3
2017-Oct-10 01:32N 35°24' E 139°40'0 0.0
2017-Oct-09 23:53N 35°24' E 139°40'0 0.5
2017-Oct-09 23:29N 35°24' E 139°40'2 3.3
2017-Oct-09 23:00N 35°24' E 139°41'  
Track history (hours):
 
Tides and Currents Weather Stations Pressure Air Temp Water Temp Dewpoint Dewpoint Depression Visibility Wind Speed Wind Dir Waves Ship Positions

No.21 Houeimaru

Last reported at 2017-Oct-18 17:46 UTC. Time now 2017-Oct-18 20:17 UTC.
Position N 35°29' E 139°42'.

Length 50 m.

Type: Tanker. MMSI: 431009275.

Date/timePositionNaut miles runAvg speedWind from/ knotsBaromVisibWave heightAir tempDewpointWater temp
2017-Oct-18 17:46N 35°29' E 139°42'0 0.0
2017-Oct-18 14:52N 35°29' E 139°42'0 0.0
2017-Oct-18 12:13N 35°29' E 139°42'0 0.0
2017-Oct-18 11:52N 35°29' E 139°42'0 0.0
2017-Oct-18 11:04N 35°29' E 139°42'0 0.0
2017-Oct-18 10:31N 35°29' E 139°42'0 0.0
2017-Oct-18 06:58N 35°29' E 139°42'4 1.0
2017-Oct-18 02:45N 35°29' E 139°46'2 9.7
2017-Oct-18 02:31N 35°27' E 139°45'5 8.4
2017-Oct-18 01:55N 35°24' E 139°40'2 3.1
2017-Oct-18 01:21N 35°24' E 139°38'0 0.0
2017-Oct-17 23:54N 35°24' E 139°38'0 0.0
2017-Oct-17 23:09N 35°24' E 139°38'0 2.4
2017-Oct-17 23:00N 35°24' E 139°39'5 1.0
2017-Oct-17 17:58N 35°29' E 139°41'0 0.0
2017-Oct-17 07:01N 35°29' E 139°42'011.7
2017-Oct-17 07:00N 35°29' E 139°42'3 0.5
2017-Oct-17 00:59N 35°27' E 139°45'5 8.5
2017-Oct-17 00:21N 35°24' E 139°40'1 1.7
2017-Oct-16 23:45N 35°25' E 139°39'0 0.0
2017-Oct-16 22:39N 35°25' E 139°39'0 0.0
2017-Oct-16 22:27N 35°25' E 139°39'2 3.6
2017-Oct-16 21:46N 35°25' E 139°42'4 2.4
2017-Oct-16 20:07N 35°29' E 139°42'0 0.0
2017-Oct-16 19:34N 35°29' E 139°42'0 0.0
2017-Oct-16 18:19N 35°29' E 139°42'0 0.0
2017-Oct-16 10:55N 35°29' E 139°42'0 0.0
2017-Oct-16 08:13N 35°29' E 139°42'0 0.0
2017-Oct-16 07:16N 35°29' E 139°42'0 0.0
2017-Oct-16 05:25N 35°29' E 139°42'0 0.0
2017-Oct-16 04:55N 35°29' E 139°42'4 1.4
2017-Oct-16 01:59N 35°29' E 139°47'6 9.0
2017-Oct-16 01:21N 35°25' E 139°42'2 4.8
2017-Oct-16 00:51N 35°25' E 139°39'0 0.0
2017-Oct-15 23:24N 35°25' E 139°39'0 0.5
2017-Oct-15 23:00N 35°24' E 139°39'2 3.8
2017-Oct-15 22:29N 35°24' E 139°42'5 1.2
2017-Oct-15 18:42N 35°29' E 139°42'0 0.0
2017-Oct-15 13:06N 35°29' E 139°42'0 0.0
2017-Oct-15 13:00N 35°29' E 139°42'0 0.0
2017-Oct-15 12:03N 35°29' E 139°42'0 0.0
2017-Oct-15 06:00N 35°29' E 139°42'0 0.0
2017-Oct-15 03:12N 35°29' E 139°42'0 0.0
2017-Oct-15 02:51N 35°29' E 139°42'0 0.0
2017-Oct-15 02:27N 35°29' E 139°42'0 0.0
2017-Oct-15 01:57N 35°29' E 139°42'0 0.0
2017-Oct-14 21:57N 35°29' E 139°42'0 0.0
2017-Oct-14 21:21N 35°29' E 139°42'1 0.1
2017-Oct-14 09:20N 35°29' E 139°43'3 0.4
2017-Oct-14 02:03N 35°28' E 139°46'1 9.7
2017-Oct-14 01:55N 35°27' E 139°45'4 9.0
2017-Oct-14 01:28N 35°24' E 139°42'2 0.9
2017-Oct-13 23:22N 35°24' E 139°40'1 0.8
2017-Oct-13 22:37N 35°24' E 139°40'1 5.5
2017-Oct-13 22:26N 35°23' E 139°41'4 9.1
2017-Oct-13 22:00N 35°27' E 139°43'2 2.4
2017-Oct-13 21:04N 35°29' E 139°42'0 0.0
2017-Oct-13 15:49N 35°29' E 139°42'0 0.0
2017-Oct-13 15:16N 35°29' E 139°42'0 0.0
2017-Oct-13 12:34N 35°29' E 139°42'0 0.0
2017-Oct-13 12:10N 35°29' E 139°42'0 0.0
2017-Oct-13 11:55N 35°29' E 139°42'0 0.0
2017-Oct-13 11:25N 35°29' E 139°42'0 0.0
2017-Oct-13 09:25N 35°29' E 139°42'0 0.0
2017-Oct-13 08:37N 35°29' E 139°42'0 0.0
2017-Oct-13 08:19N 35°29' E 139°42'0 0.0
2017-Oct-13 07:58N 35°29' E 139°42'0 0.0
2017-Oct-13 07:16N 35°29' E 139°42'0 0.0
2017-Oct-13 06:55N 35°29' E 139°42'0 0.0
2017-Oct-13 05:49N 35°29' E 139°42'4 0.5
2017-Oct-12 21:43N 35°30' E 139°46'4 1.9
2017-Oct-12 19:47N 35°29' E 139°42'0 0.0
2017-Oct-12 19:29N 35°29' E 139°42'0 0.0
2017-Oct-12 15:59N 35°29' E 139°42'0 0.0
2017-Oct-12 14:02N 35°29' E 139°42'0 0.0
2017-Oct-12 13:53N 35°29' E 139°42'0 0.0
2017-Oct-12 12:59N 35°29' E 139°42'0 0.0
2017-Oct-12 09:20N 35°29' E 139°42'0 0.0
2017-Oct-12 07:14N 35°29' E 139°42'0 0.0
2017-Oct-12 06:47N 35°29' E 139°42'0 0.0
2017-Oct-12 06:29N 35°29' E 139°42'0 0.0
2017-Oct-12 05:59N 35°29' E 139°42'0 0.0
2017-Oct-12 03:14N 35°29' E 139°42'5 7.8
2017-Oct-12 02:32N 35°29' E 139°48'0 2.1
2017-Oct-12 02:25N 35°29' E 139°48'5 0.1
2017-Oct-10 07:25N 35°27' E 139°43'2 1.0
2017-Oct-10 05:00N 35°29' E 139°40'0 0.2
2017-Oct-10 03:54N 35°29' E 139°40'3 5.7
2017-Oct-10 03:20N 35°26' E 139°43'2 6.0
2017-Oct-10 02:58N 35°24' E 139°42'2 1.3
2017-Oct-10 01:32N 35°24' E 139°40'0 0.0
2017-Oct-09 23:53N 35°24' E 139°40'0 0.5
2017-Oct-09 23:29N 35°24' E 139°40'2 3.3
2017-Oct-09 23:00N 35°24' E 139°41'  

Dump ship's entire track history